sensor_id;sensor_type;location;lat;lon;timestamp;temperature;humidity
17495;DHT22;8864;51.970;4.614;2024-02-28T00:01:13;15.80;85.00
17495;DHT22;8864;51.970;4.614;2024-02-28T00:03:40;15.80;85.10
17495;DHT22;8864;51.970;4.614;2024-02-28T00:06:07;15.80;85.00
17495;DHT22;8864;51.970;4.614;2024-02-28T00:08:36;15.80;85.00
17495;DHT22;8864;51.970;4.614;2024-02-28T00:11:03;15.80;84.90
17495;DHT22;8864;51.970;4.614;2024-02-28T00:13:30;15.80;84.90
17495;DHT22;8864;51.970;4.614;2024-02-28T00:15:57;15.80;84.90
17495;DHT22;8864;51.970;4.614;2024-02-28T00:18:24;15.80;84.70
17495;DHT22;8864;51.970;4.614;2024-02-28T00:20:51;15.80;84.80
17495;DHT22;8864;51.970;4.614;2024-02-28T00:23:20;15.80;84.70
17495;DHT22;8864;51.970;4.614;2024-02-28T00:25:48;15.80;84.70
17495;DHT22;8864;51.970;4.614;2024-02-28T00:28:15;15.80;84.60
17495;DHT22;8864;51.970;4.614;2024-02-28T00:30:42;15.80;84.60
17495;DHT22;8864;51.970;4.614;2024-02-28T00:33:11;15.80;84.60
17495;DHT22;8864;51.970;4.614;2024-02-28T00:35:40;15.80;84.50
17495;DHT22;8864;51.970;4.614;2024-02-28T00:38:06;15.80;84.40
17495;DHT22;8864;51.970;4.614;2024-02-28T00:40:33;15.80;84.40
17495;DHT22;8864;51.970;4.614;2024-02-28T00:43:02;15.80;84.40
17495;DHT22;8864;51.970;4.614;2024-02-28T00:45:28;15.80;84.30
17495;DHT22;8864;51.970;4.614;2024-02-28T00:47:55;15.80;84.30
17495;DHT22;8864;51.970;4.614;2024-02-28T00:50:22;15.80;84.30
17495;DHT22;8864;51.970;4.614;2024-02-28T00:52:50;15.80;84.10
17495;DHT22;8864;51.970;4.614;2024-02-28T00:55:16;15.80;84.10
17495;DHT22;8864;51.970;4.614;2024-02-28T00:57:44;15.80;84.10
17495;DHT22;8864;51.970;4.614;2024-02-28T01:00:13;15.80;84.00
17495;DHT22;8864;51.970;4.614;2024-02-28T01:02:40;15.80;83.80
17495;DHT22;8864;51.970;4.614;2024-02-28T01:05:08;15.80;83.80
17495;DHT22;8864;51.970;4.614;2024-02-28T01:07:35;15.80;83.90
17495;DHT22;8864;51.970;4.614;2024-02-28T01:10:02;15.80;84.00
17495;DHT22;8864;51.970;4.614;2024-02-28T01:12:30;15.80;84.60
17495;DHT22;8864;51.970;4.614;2024-02-28T01:14:57;15.80;83.80
17495;DHT22;8864;51.970;4.614;2024-02-28T01:17:25;15.80;83.90
17495;DHT22;8864;51.970;4.614;2024-02-28T01:19:52;15.80;83.80
17495;DHT22;8864;51.970;4.614;2024-02-28T01:22:19;15.80;83.80
17495;DHT22;8864;51.970;4.614;2024-02-28T01:24:46;15.80;83.80
17495;DHT22;8864;51.970;4.614;2024-02-28T01:27:13;15.80;83.80
17495;DHT22;8864;51.970;4.614;2024-02-28T01:29:40;15.80;83.80
17495;DHT22;8864;51.970;4.614;2024-02-28T01:32:07;15.80;83.90
17495;DHT22;8864;51.970;4.614;2024-02-28T01:34:35;15.80;83.80
17495;DHT22;8864;51.970;4.614;2024-02-28T01:37:02;15.80;83.80
17495;DHT22;8864;51.970;4.614;2024-02-28T01:39:29;15.80;83.80
17495;DHT22;8864;51.970;4.614;2024-02-28T01:41:56;15.70;83.70
17495;DHT22;8864;51.970;4.614;2024-02-28T01:44:23;15.80;83.80
17495;DHT22;8864;51.970;4.614;2024-02-28T01:46:51;15.80;83.70
17495;DHT22;8864;51.970;4.614;2024-02-28T01:49:20;15.80;83.60
17495;DHT22;8864;51.970;4.614;2024-02-28T01:51:49;15.80;83.70
17495;DHT22;8864;51.970;4.614;2024-02-28T01:54:18;15.80;83.60
17495;DHT22;8864;51.970;4.614;2024-02-28T01:56:46;15.80;83.60
17495;DHT22;8864;51.970;4.614;2024-02-28T01:59:13;15.70;83.50
17495;DHT22;8864;51.970;4.614;2024-02-28T02:01:40;15.80;83.40
17495;DHT22;8864;51.970;4.614;2024-02-28T02:04:08;15.80;83.40
17495;DHT22;8864;51.970;4.614;2024-02-28T02:06:37;15.80;83.40
17495;DHT22;8864;51.970;4.614;2024-02-28T02:09:07;15.80;83.30
17495;DHT22;8864;51.970;4.614;2024-02-28T02:11:34;15.80;83.30
17495;DHT22;8864;51.970;4.614;2024-02-28T02:14:02;15.80;83.30
17495;DHT22;8864;51.970;4.614;2024-02-28T02:16:29;15.80;83.20
17495;DHT22;8864;51.970;4.614;2024-02-28T02:18:56;15.80;83.20
17495;DHT22;8864;51.970;4.614;2024-02-28T02:21:26;15.80;83.10
17495;DHT22;8864;51.970;4.614;2024-02-28T02:23:58;15.80;83.10
17495;DHT22;8864;51.970;4.614;2024-02-28T02:26:25;15.80;83.10
17495;DHT22;8864;51.970;4.614;2024-02-28T02:28:52;15.80;83.10
17495;DHT22;8864;51.970;4.614;2024-02-28T02:31:19;15.80;83.10
17495;DHT22;8864;51.970;4.614;2024-02-28T02:33:46;15.70;83.00
17495;DHT22;8864;51.970;4.614;2024-02-28T02:36:13;15.80;83.00
17495;DHT22;8864;51.970;4.614;2024-02-28T02:38:40;15.80;83.00
17495;DHT22;8864;51.970;4.614;2024-02-28T02:41:08;15.80;83.00
17495;DHT22;8864;51.970;4.614;2024-02-28T02:43:35;15.80;83.00
17495;DHT22;8864;51.970;4.614;2024-02-28T02:46:02;15.80;83.00
17495;DHT22;8864;51.970;4.614;2024-02-28T02:48:30;15.80;83.00
17495;DHT22;8864;51.970;4.614;2024-02-28T02:50:56;15.80;83.00
17495;DHT22;8864;51.970;4.614;2024-02-28T02:53:23;15.80;82.80
17495;DHT22;8864;51.970;4.614;2024-02-28T02:55:50;15.80;82.90
17495;DHT22;8864;51.970;4.614;2024-02-28T02:58:18;15.80;83.10
17495;DHT22;8864;51.970;4.614;2024-02-28T03:00:46;15.80;83.00
17495;DHT22;8864;51.970;4.614;2024-02-28T03:03:13;15.80;83.00
17495;DHT22;8864;51.970;4.614;2024-02-28T03:05:40;15.80;83.10
17495;DHT22;8864;51.970;4.614;2024-02-28T03:08:07;15.80;83.00
17495;DHT22;8864;51.970;4.614;2024-02-28T03:10:34;15.80;83.10
17495;DHT22;8864;51.970;4.614;2024-02-28T03:13:01;15.80;83.10
17495;DHT22;8864;51.970;4.614;2024-02-28T03:15:29;15.80;83.00
17495;DHT22;8864;51.970;4.614;2024-02-28T03:17:56;15.80;83.00
17495;DHT22;8864;51.970;4.614;2024-02-28T03:20:23;15.80;82.90
17495;DHT22;8864;51.970;4.614;2024-02-28T03:22:51;15.80;83.00
17495;DHT22;8864;51.970;4.614;2024-02-28T03:25:18;15.80;82.90
17495;DHT22;8864;51.970;4.614;2024-02-28T03:27:45;15.80;82.90
17495;DHT22;8864;51.970;4.614;2024-02-28T03:30:12;15.80;82.90
17495;DHT22;8864;51.970;4.614;2024-02-28T03:32:44;15.80;82.90
17495;DHT22;8864;51.970;4.614;2024-02-28T03:35:11;15.80;82.90
17495;DHT22;8864;51.970;4.614;2024-02-28T03:37:37;15.80;82.90
17495;DHT22;8864;51.970;4.614;2024-02-28T03:40:06;15.80;82.90
17495;DHT22;8864;51.970;4.614;2024-02-28T03:42:33;15.80;82.90
17495;DHT22;8864;51.970;4.614;2024-02-28T03:45:00;15.80;82.80
17495;DHT22;8864;51.970;4.614;2024-02-28T03:47:27;15.80;82.80
17495;DHT22;8864;51.970;4.614;2024-02-28T03:49:55;15.80;82.80
17495;DHT22;8864;51.970;4.614;2024-02-28T03:52:23;15.80;82.70
17495;DHT22;8864;51.970;4.614;2024-02-28T03:54:50;15.80;82.80
17495;DHT22;8864;51.970;4.614;2024-02-28T03:57:16;15.80;82.70
17495;DHT22;8864;51.970;4.614;2024-02-28T03:59:43;15.80;82.80
17495;DHT22;8864;51.970;4.614;2024-02-28T04:02:10;15.80;82.80
17495;DHT22;8864;51.970;4.614;2024-02-28T04:04:37;15.80;82.70
17495;DHT22;8864;51.970;4.614;2024-02-28T04:07:06;15.80;82.70
17495;DHT22;8864;51.970;4.614;2024-02-28T04:09:33;15.80;82.70
17495;DHT22;8864;51.970;4.614;2024-02-28T04:12:00;15.80;82.70
17495;DHT22;8864;51.970;4.614;2024-02-28T04:14:27;15.80;82.70
17495;DHT22;8864;51.970;4.614;2024-02-28T04:16:54;15.80;82.70
17495;DHT22;8864;51.970;4.614;2024-02-28T04:19:21;15.80;82.70
17495;DHT22;8864;51.970;4.614;2024-02-28T04:21:48;15.80;82.70
17495;DHT22;8864;51.970;4.614;2024-02-28T04:24:16;15.80;82.60
17495;DHT22;8864;51.970;4.614;2024-02-28T04:26:43;15.80;82.50
17495;DHT22;8864;51.970;4.614;2024-02-28T04:29:10;15.80;82.40
17495;DHT22;8864;51.970;4.614;2024-02-28T04:31:39;15.80;82.50
17495;DHT22;8864;51.970;4.614;2024-02-28T04:34:06;15.80;82.60
17495;DHT22;8864;51.970;4.614;2024-02-28T04:36:33;15.80;82.40
17495;DHT22;8864;51.970;4.614;2024-02-28T04:39:00;15.80;82.40
17495;DHT22;8864;51.970;4.614;2024-02-28T04:41:31;15.80;82.40
17495;DHT22;8864;51.970;4.614;2024-02-28T04:43:58;15.80;82.40
17495;DHT22;8864;51.970;4.614;2024-02-28T04:46:25;15.80;82.40
17495;DHT22;8864;51.970;4.614;2024-02-28T04:48:52;15.80;82.30
17495;DHT22;8864;51.970;4.614;2024-02-28T04:51:19;15.80;82.40
17495;DHT22;8864;51.970;4.614;2024-02-28T04:53:46;15.80;82.40
17495;DHT22;8864;51.970;4.614;2024-02-28T04:56:13;15.80;82.30
17495;DHT22;8864;51.970;4.614;2024-02-28T04:58:41;15.80;82.30
17495;DHT22;8864;51.970;4.614;2024-02-28T05:01:08;15.80;82.30
17495;DHT22;8864;51.970;4.614;2024-02-28T05:03:35;15.80;82.30
17495;DHT22;8864;51.970;4.614;2024-02-28T05:06:02;15.80;82.30
17495;DHT22;8864;51.970;4.614;2024-02-28T05:08:30;15.80;82.30
17495;DHT22;8864;51.970;4.614;2024-02-28T05:10:57;15.80;82.30
17495;DHT22;8864;51.970;4.614;2024-02-28T05:13:23;15.80;82.20
17495;DHT22;8864;51.970;4.614;2024-02-28T05:15:52;15.80;82.10
17495;DHT22;8864;51.970;4.614;2024-02-28T05:18:19;15.80;82.10
17495;DHT22;8864;51.970;4.614;2024-02-28T05:20:46;15.80;82.10
17495;DHT22;8864;51.970;4.614;2024-02-28T05:23:13;15.80;82.10
17495;DHT22;8864;51.970;4.614;2024-02-28T05:25:40;15.80;82.10
17495;DHT22;8864;51.970;4.614;2024-02-28T05:28:07;15.80;82.10
17495;DHT22;8864;51.970;4.614;2024-02-28T05:30:34;15.80;82.10
17495;DHT22;8864;51.970;4.614;2024-02-28T05:33:02;15.80;82.20
17495;DHT22;8864;51.970;4.614;2024-02-28T05:35:30;15.80;82.10
17495;DHT22;8864;51.970;4.614;2024-02-28T05:37:57;15.80;82.10
17495;DHT22;8864;51.970;4.614;2024-02-28T05:40:24;15.80;82.10
17495;DHT22;8864;51.970;4.614;2024-02-28T05:42:51;15.80;82.10
17495;DHT22;8864;51.970;4.614;2024-02-28T05:45:17;15.80;82.20
17495;DHT22;8864;51.970;4.614;2024-02-28T05:47:45;15.80;82.10
17495;DHT22;8864;51.970;4.614;2024-02-28T05:50:13;15.70;82.10
17495;DHT22;8864;51.970;4.614;2024-02-28T05:52:41;15.80;82.20
17495;DHT22;8864;51.970;4.614;2024-02-28T05:55:09;15.80;82.10
17495;DHT22;8864;51.970;4.614;2024-02-28T05:57:37;15.80;82.20
17495;DHT22;8864;51.970;4.614;2024-02-28T06:00:05;15.80;82.10
17495;DHT22;8864;51.970;4.614;2024-02-28T06:02:36;15.80;82.30
17495;DHT22;8864;51.970;4.614;2024-02-28T06:05:03;15.80;82.10
17495;DHT22;8864;51.970;4.614;2024-02-28T06:07:32;15.80;82.10
17495;DHT22;8864;51.970;4.614;2024-02-28T06:09:59;15.80;82.20
17495;DHT22;8864;51.970;4.614;2024-02-28T06:12:26;15.80;82.30
17495;DHT22;8864;51.970;4.614;2024-02-28T06:14:53;15.80;82.30
17495;DHT22;8864;51.970;4.614;2024-02-28T06:17:20;15.80;82.20
17495;DHT22;8864;51.970;4.614;2024-02-28T06:19:47;15.80;82.20
17495;DHT22;8864;51.970;4.614;2024-02-28T06:22:14;15.80;82.20
17495;DHT22;8864;51.970;4.614;2024-02-28T06:24:42;15.70;82.10
17495;DHT22;8864;51.970;4.614;2024-02-28T06:27:10;15.80;82.30
17495;DHT22;8864;51.970;4.614;2024-02-28T06:29:38;15.80;82.30
17495;DHT22;8864;51.970;4.614;2024-02-28T06:32:06;15.80;82.40
17495;DHT22;8864;51.970;4.614;2024-02-28T06:34:33;15.70;82.30
17495;DHT22;8864;51.970;4.614;2024-02-28T06:37:00;15.80;82.60
17495;DHT22;8864;51.970;4.614;2024-02-28T06:39:27;15.80;82.60
17495;DHT22;8864;51.970;4.614;2024-02-28T06:41:55;15.80;82.60
17495;DHT22;8864;51.970;4.614;2024-02-28T06:44:22;15.80;82.60
17495;DHT22;8864;51.970;4.614;2024-02-28T06:46:50;15.80;82.40
17495;DHT22;8864;51.970;4.614;2024-02-28T06:49:16;15.80;82.40
17495;DHT22;8864;51.970;4.614;2024-02-28T06:51:43;15.70;82.30
17495;DHT22;8864;51.970;4.614;2024-02-28T06:54:10;15.70;82.30
17495;DHT22;8864;51.970;4.614;2024-02-28T06:56:37;15.70;82.30
17495;DHT22;8864;51.970;4.614;2024-02-28T06:59:05;15.70;82.20
17495;DHT22;8864;51.970;4.614;2024-02-28T07:01:33;15.70;82.10
17495;DHT22;8864;51.970;4.614;2024-02-28T07:04:00;15.70;82.10
17495;DHT22;8864;51.970;4.614;2024-02-28T07:06:27;15.70;82.00
17495;DHT22;8864;51.970;4.614;2024-02-28T07:08:54;15.80;82.90
17495;DHT22;8864;51.970;4.614;2024-02-28T07:11:21;15.80;82.40
17495;DHT22;8864;51.970;4.614;2024-02-28T07:13:48;15.80;82.30
17495;DHT22;8864;51.970;4.614;2024-02-28T07:16:16;15.70;82.00
17495;DHT22;8864;51.970;4.614;2024-02-28T07:18:43;15.80;82.00
17495;DHT22;8864;51.970;4.614;2024-02-28T07:21:10;15.80;81.90
17495;DHT22;8864;51.970;4.614;2024-02-28T07:23:40;15.70;82.00
17495;DHT22;8864;51.970;4.614;2024-02-28T07:26:07;15.80;82.10
17495;DHT22;8864;51.970;4.614;2024-02-28T07:28:34;15.80;82.00
17495;DHT22;8864;51.970;4.614;2024-02-28T07:31:01;15.80;82.00
17495;DHT22;8864;51.970;4.614;2024-02-28T07:33:29;15.70;82.00
17495;DHT22;8864;51.970;4.614;2024-02-28T07:35:56;15.80;82.10
17495;DHT22;8864;51.970;4.614;2024-02-28T07:38:26;15.80;82.10
17495;DHT22;8864;51.970;4.614;2024-02-28T07:40:54;15.80;82.00
17495;DHT22;8864;51.970;4.614;2024-02-28T07:43:21;15.80;82.30
17495;DHT22;8864;51.970;4.614;2024-02-28T07:45:48;15.80;82.30
17495;DHT22;8864;51.970;4.614;2024-02-28T07:48:15;15.80;82.30
17495;DHT22;8864;51.970;4.614;2024-02-28T07:50:44;15.80;82.20
17495;DHT22;8864;51.970;4.614;2024-02-28T07:53:11;15.80;82.20
17495;DHT22;8864;51.970;4.614;2024-02-28T07:55:39;15.80;82.10
17495;DHT22;8864;51.970;4.614;2024-02-28T07:58:06;15.80;82.10
17495;DHT22;8864;51.970;4.614;2024-02-28T08:00:34;15.90;82.10
17495;DHT22;8864;51.970;4.614;2024-02-28T08:03:02;15.90;82.00
17495;DHT22;8864;51.970;4.614;2024-02-28T08:05:29;15.90;82.00
17495;DHT22;8864;51.970;4.614;2024-02-28T08:07:59;15.90;82.00
17495;DHT22;8864;51.970;4.614;2024-02-28T08:10:26;15.90;81.90
17495;DHT22;8864;51.970;4.614;2024-02-28T08:12:54;15.90;81.90
17495;DHT22;8864;51.970;4.614;2024-02-28T08:15:20;15.90;82.00
17495;DHT22;8864;51.970;4.614;2024-02-28T08:17:47;15.90;81.80
17495;DHT22;8864;51.970;4.614;2024-02-28T08:20:15;15.90;81.80
17495;DHT22;8864;51.970;4.614;2024-02-28T08:22:42;16.00;81.70
17495;DHT22;8864;51.970;4.614;2024-02-28T08:25:10;15.90;81.60
17495;DHT22;8864;51.970;4.614;2024-02-28T08:27:37;15.90;81.60
17495;DHT22;8864;51.970;4.614;2024-02-28T08:30:06;15.90;81.60
17495;DHT22;8864;51.970;4.614;2024-02-28T08:32:33;15.90;81.50
17495;DHT22;8864;51.970;4.614;2024-02-28T08:35:00;15.90;81.50
17495;DHT22;8864;51.970;4.614;2024-02-28T08:37:27;15.90;81.50
17495;DHT22;8864;51.970;4.614;2024-02-28T08:39:54;15.90;81.40
17495;DHT22;8864;51.970;4.614;2024-02-28T08:42:24;15.90;81.30
17495;DHT22;8864;51.970;4.614;2024-02-28T08:44:51;15.90;81.30
17495;DHT22;8864;51.970;4.614;2024-02-28T08:47:23;15.90;81.30
17495;DHT22;8864;51.970;4.614;2024-02-28T08:49:51;15.90;81.30
17495;DHT22;8864;51.970;4.614;2024-02-28T08:52:18;15.90;81.30
17495;DHT22;8864;51.970;4.614;2024-02-28T08:54:45;15.90;81.30
17495;DHT22;8864;51.970;4.614;2024-02-28T08:57:12;16.00;81.30
17495;DHT22;8864;51.970;4.614;2024-02-28T08:59:41;16.00;81.20
17495;DHT22;8864;51.970;4.614;2024-02-28T09:02:09;16.00;81.30
17495;DHT22;8864;51.970;4.614;2024-02-28T09:04:37;15.90;81.20
17495;DHT22;8864;51.970;4.614;2024-02-28T09:07:04;16.00;81.20
17495;DHT22;8864;51.970;4.614;2024-02-28T09:09:31;16.00;81.20
17495;DHT22;8864;51.970;4.614;2024-02-28T09:12:02;16.00;81.10
17495;DHT22;8864;51.970;4.614;2024-02-28T09:14:30;16.00;81.10
17495;DHT22;8864;51.970;4.614;2024-02-28T09:16:58;16.00;81.10
17495;DHT22;8864;51.970;4.614;2024-02-28T09:19:29;16.00;81.00
17495;DHT22;8864;51.970;4.614;2024-02-28T09:21:56;16.00;81.10
17495;DHT22;8864;51.970;4.614;2024-02-28T09:24:23;16.00;81.00
17495;DHT22;8864;51.970;4.614;2024-02-28T09:26:50;16.00;81.00
17495;DHT22;8864;51.970;4.614;2024-02-28T09:29:17;16.00;80.90
17495;DHT22;8864;51.970;4.614;2024-02-28T09:31:44;16.00;80.90
17495;DHT22;8864;51.970;4.614;2024-02-28T09:34:13;16.00;80.90
17495;DHT22;8864;51.970;4.614;2024-02-28T09:36:41;16.00;80.90
17495;DHT22;8864;51.970;4.614;2024-02-28T09:39:08;16.10;80.90
17495;DHT22;8864;51.970;4.614;2024-02-28T09:41:35;16.10;80.90
17495;DHT22;8864;51.970;4.614;2024-02-28T09:44:02;16.10;81.00
17495;DHT22;8864;51.970;4.614;2024-02-28T09:46:32;16.10;80.90
17495;DHT22;8864;51.970;4.614;2024-02-28T09:49:02;16.10;80.90
17495;DHT22;8864;51.970;4.614;2024-02-28T09:51:33;16.10;80.90
17495;DHT22;8864;51.970;4.614;2024-02-28T09:54:01;16.10;80.90
17495;DHT22;8864;51.970;4.614;2024-02-28T09:56:29;16.10;80.90
17495;DHT22;8864;51.970;4.614;2024-02-28T09:58:57;16.10;80.90
17495;DHT22;8864;51.970;4.614;2024-02-28T10:01:25;16.10;80.80
17495;DHT22;8864;51.970;4.614;2024-02-28T10:03:54;16.20;80.80
17495;DHT22;8864;51.970;4.614;2024-02-28T10:06:21;16.10;80.80
17495;DHT22;8864;51.970;4.614;2024-02-28T10:08:50;16.20;80.80
17495;DHT22;8864;51.970;4.614;2024-02-28T10:11:18;16.20;80.80
17495;DHT22;8864;51.970;4.614;2024-02-28T10:13:46;16.20;80.80
17495;DHT22;8864;51.970;4.614;2024-02-28T10:16:13;16.20;80.80
17495;DHT22;8864;51.970;4.614;2024-02-28T10:18:42;16.20;80.80
17495;DHT22;8864;51.970;4.614;2024-02-28T10:21:09;16.20;80.70
17495;DHT22;8864;51.970;4.614;2024-02-28T10:23:37;16.20;80.80
17495;DHT22;8864;51.970;4.614;2024-02-28T10:26:09;16.20;80.70
17495;DHT22;8864;51.970;4.614;2024-02-28T10:28:36;16.20;80.70
17495;DHT22;8864;51.970;4.614;2024-02-28T10:31:04;16.20;80.60
17495;DHT22;8864;51.970;4.614;2024-02-28T10:33:31;16.20;80.70
17495;DHT22;8864;51.970;4.614;2024-02-28T10:35:59;16.20;80.60
17495;DHT22;8864;51.970;4.614;2024-02-28T10:38:26;16.30;80.80
17495;DHT22;8864;51.970;4.614;2024-02-28T10:40:54;16.30;80.80
17495;DHT22;8864;51.970;4.614;2024-02-28T10:43:23;16.30;80.60
17495;DHT22;8864;51.970;4.614;2024-02-28T10:45:54;16.30;80.60
17495;DHT22;8864;51.970;4.614;2024-02-28T10:48:23;16.30;80.60
17495;DHT22;8864;51.970;4.614;2024-02-28T10:50:51;16.30;80.60
17495;DHT22;8864;51.970;4.614;2024-02-28T10:53:22;16.40;80.70
17495;DHT22;8864;51.970;4.614;2024-02-28T10:55:51;16.40;80.70
17495;DHT22;8864;51.970;4.614;2024-02-28T10:58:24;16.40;80.70
17495;DHT22;8864;51.970;4.614;2024-02-28T11:00:53;16.40;80.70
17495;DHT22;8864;51.970;4.614;2024-02-28T11:03:21;16.40;80.80
17495;DHT22;8864;51.970;4.614;2024-02-28T11:05:48;16.40;80.80
17495;DHT22;8864;51.970;4.614;2024-02-28T11:08:21;16.40;80.80
17495;DHT22;8864;51.970;4.614;2024-02-28T11:10:55;16.40;80.70
17495;DHT22;8864;51.970;4.614;2024-02-28T11:13:24;16.40;80.70
17495;DHT22;8864;51.970;4.614;2024-02-28T11:15:51;16.40;80.60
17495;DHT22;8864;51.970;4.614;2024-02-28T11:18:19;16.40;80.60
17495;DHT22;8864;51.970;4.614;2024-02-28T11:20:46;16.40;80.50
17495;DHT22;8864;51.970;4.614;2024-02-28T11:23:14;16.40;80.50
17495;DHT22;8864;51.970;4.614;2024-02-28T11:25:43;16.40;80.60
17495;DHT22;8864;51.970;4.614;2024-02-28T11:28:10;16.40;80.50
17495;DHT22;8864;51.970;4.614;2024-02-28T11:30:40;16.40;80.60
17495;DHT22;8864;51.970;4.614;2024-02-28T11:33:07;16.40;80.60
17495;DHT22;8864;51.970;4.614;2024-02-28T11:35:35;16.40;80.60
17495;DHT22;8864;51.970;4.614;2024-02-28T11:38:02;16.40;80.60
17495;DHT22;8864;51.970;4.614;2024-02-28T11:40:32;16.40;80.60
17495;DHT22;8864;51.970;4.614;2024-02-28T11:43:00;16.40;80.60
17495;DHT22;8864;51.970;4.614;2024-02-28T11:45:29;16.40;80.60
17495;DHT22;8864;51.970;4.614;2024-02-28T11:47:58;16.50;80.60
17495;DHT22;8864;51.970;4.614;2024-02-28T11:50:25;16.50;80.50
17495;DHT22;8864;51.970;4.614;2024-02-28T11:52:55;16.50;80.50
17495;DHT22;8864;51.970;4.614;2024-02-28T11:55:24;16.50;80.40
17495;DHT22;8864;51.970;4.614;2024-02-28T11:57:51;16.50;80.40
17495;DHT22;8864;51.970;4.614;2024-02-28T12:00:18;16.50;80.30
17495;DHT22;8864;51.970;4.614;2024-02-28T12:02:46;16.50;80.30
17495;DHT22;8864;51.970;4.614;2024-02-28T12:05:14;16.50;80.20
17495;DHT22;8864;51.970;4.614;2024-02-28T12:07:42;16.50;80.20
17495;DHT22;8864;51.970;4.614;2024-02-28T12:10:09;16.50;80.20
17495;DHT22;8864;51.970;4.614;2024-02-28T12:12:38;16.50;80.20
17495;DHT22;8864;51.970;4.614;2024-02-28T12:15:07;16.50;80.20
17495;DHT22;8864;51.970;4.614;2024-02-28T12:17:36;16.50;80.20
17495;DHT22;8864;51.970;4.614;2024-02-28T12:20:03;16.50;80.10
17495;DHT22;8864;51.970;4.614;2024-02-28T12:22:33;16.50;80.10
17495;DHT22;8864;51.970;4.614;2024-02-28T12:25:00;16.50;80.00
17495;DHT22;8864;51.970;4.614;2024-02-28T12:27:30;16.50;80.00
17495;DHT22;8864;51.970;4.614;2024-02-28T12:29:57;16.60;79.90
17495;DHT22;8864;51.970;4.614;2024-02-28T12:32:24;16.50;79.90
17495;DHT22;8864;51.970;4.614;2024-02-28T12:34:51;16.60;79.80
17495;DHT22;8864;51.970;4.614;2024-02-28T12:37:20;16.60;79.90
17495;DHT22;8864;51.970;4.614;2024-02-28T12:39:48;16.50;79.70
17495;DHT22;8864;51.970;4.614;2024-02-28T12:42:17;16.60;80.00
17495;DHT22;8864;51.970;4.614;2024-02-28T12:44:44;16.60;80.20
17495;DHT22;8864;51.970;4.614;2024-02-28T12:47:11;16.60;80.20
17495;DHT22;8864;51.970;4.614;2024-02-28T12:49:38;16.60;80.30
17495;DHT22;8864;51.970;4.614;2024-02-28T12:52:05;16.60;80.40
17495;DHT22;8864;51.970;4.614;2024-02-28T12:54:32;16.60;80.50
17495;DHT22;8864;51.970;4.614;2024-02-28T12:57:01;16.60;80.60
17495;DHT22;8864;51.970;4.614;2024-02-28T12:59:30;16.60;80.80
17495;DHT22;8864;51.970;4.614;2024-02-28T13:01:58;16.60;80.90
17495;DHT22;8864;51.970;4.614;2024-02-28T13:04:25;16.60;81.10
17495;DHT22;8864;51.970;4.614;2024-02-28T13:06:54;16.60;81.20
17495;DHT22;8864;51.970;4.614;2024-02-28T13:09:20;16.60;81.50
17495;DHT22;8864;51.970;4.614;2024-02-28T13:11:49;16.60;81.70
17495;DHT22;8864;51.970;4.614;2024-02-28T13:14:17;16.60;81.90
17495;DHT22;8864;51.970;4.614;2024-02-28T13:16:45;16.60;82.00
17495;DHT22;8864;51.970;4.614;2024-02-28T13:19:12;16.60;82.10
17495;DHT22;8864;51.970;4.614;2024-02-28T13:21:39;16.60;82.30
17495;DHT22;8864;51.970;4.614;2024-02-28T13:24:06;16.60;82.30
17495;DHT22;8864;51.970;4.614;2024-02-28T13:26:33;16.60;82.30
17495;DHT22;8864;51.970;4.614;2024-02-28T13:29:00;16.60;82.40
17495;DHT22;8864;51.970;4.614;2024-02-28T13:31:29;16.60;82.50
17495;DHT22;8864;51.970;4.614;2024-02-28T13:33:56;16.60;82.60
17495;DHT22;8864;51.970;4.614;2024-02-28T13:36:23;16.60;82.80
17495;DHT22;8864;51.970;4.614;2024-02-28T13:38:50;16.60;83.00
17495;DHT22;8864;51.970;4.614;2024-02-28T13:41:17;16.60;83.00
17495;DHT22;8864;51.970;4.614;2024-02-28T13:43:44;16.60;83.10
17495;DHT22;8864;51.970;4.614;2024-02-28T13:46:11;16.60;83.10
17495;DHT22;8864;51.970;4.614;2024-02-28T13:48:41;16.60;83.20
17495;DHT22;8864;51.970;4.614;2024-02-28T13:51:08;16.60;83.40
17495;DHT22;8864;51.970;4.614;2024-02-28T13:53:36;16.60;83.40
17495;DHT22;8864;51.970;4.614;2024-02-28T13:56:04;16.60;83.60
17495;DHT22;8864;51.970;4.614;2024-02-28T13:58:32;16.60;83.60
17495;DHT22;8864;51.970;4.614;2024-02-28T14:00:59;16.60;83.70
17495;DHT22;8864;51.970;4.614;2024-02-28T14:03:26;16.60;83.70
17495;DHT22;8864;51.970;4.614;2024-02-28T14:05:55;16.60;83.80
17495;DHT22;8864;51.970;4.614;2024-02-28T14:08:22;16.50;83.90
17495;DHT22;8864;51.970;4.614;2024-02-28T14:10:49;16.60;84.00
17495;DHT22;8864;51.970;4.614;2024-02-28T14:13:16;16.60;84.10
17495;DHT22;8864;51.970;4.614;2024-02-28T14:15:44;16.50;84.10
17495;DHT22;8864;51.970;4.614;2024-02-28T14:18:12;16.60;84.20
17495;DHT22;8864;51.970;4.614;2024-02-28T14:20:40;16.50;84.20
17495;DHT22;8864;51.970;4.614;2024-02-28T14:23:09;16.50;84.10
17495;DHT22;8864;51.970;4.614;2024-02-28T14:25:36;16.60;84.20
17495;DHT22;8864;51.970;4.614;2024-02-28T14:28:03;16.60;84.20
17495;DHT22;8864;51.970;4.614;2024-02-28T14:30:30;16.50;84.10
17495;DHT22;8864;51.970;4.614;2024-02-28T14:32:57;16.50;84.10
17495;DHT22;8864;51.970;4.614;2024-02-28T14:35:25;16.50;84.20
17495;DHT22;8864;51.970;4.614;2024-02-28T14:37:51;16.50;84.20
17495;DHT22;8864;51.970;4.614;2024-02-28T14:40:21;16.50;84.30
17495;DHT22;8864;51.970;4.614;2024-02-28T14:42:48;16.50;84.30
17495;DHT22;8864;51.970;4.614;2024-02-28T14:45:15;16.50;84.30
17495;DHT22;8864;51.970;4.614;2024-02-28T14:47:42;16.50;84.40
17495;DHT22;8864;51.970;4.614;2024-02-28T14:50:10;16.50;84.40
17495;DHT22;8864;51.970;4.614;2024-02-28T14:52:38;16.50;84.50
17495;DHT22;8864;51.970;4.614;2024-02-28T14:55:06;16.60;84.60
17495;DHT22;8864;51.970;4.614;2024-02-28T14:57:35;16.50;84.50
17495;DHT22;8864;51.970;4.614;2024-02-28T15:00:03;16.50;84.50
17495;DHT22;8864;51.970;4.614;2024-02-28T15:02:34;16.50;84.60
17495;DHT22;8864;51.970;4.614;2024-02-28T15:05:01;16.50;84.60
17495;DHT22;8864;51.970;4.614;2024-02-28T15:07:30;16.50;84.60
17495;DHT22;8864;51.970;4.614;2024-02-28T15:09:57;16.50;84.60
17495;DHT22;8864;51.970;4.614;2024-02-28T15:12:26;16.50;84.70
17495;DHT22;8864;51.970;4.614;2024-02-28T15:14:54;16.50;84.60
17495;DHT22;8864;51.970;4.614;2024-02-28T15:17:21;16.50;84.60
17495;DHT22;8864;51.970;4.614;2024-02-28T15:19:48;16.50;84.60
17495;DHT22;8864;51.970;4.614;2024-02-28T15:22:15;16.50;84.60
17495;DHT22;8864;51.970;4.614;2024-02-28T15:24:42;16.50;84.70
17495;DHT22;8864;51.970;4.614;2024-02-28T15:27:09;16.50;84.70
17495;DHT22;8864;51.970;4.614;2024-02-28T15:29:36;16.50;84.80
17495;DHT22;8864;51.970;4.614;2024-02-28T15:32:05;16.50;84.80
17495;DHT22;8864;51.970;4.614;2024-02-28T15:34:32;16.50;85.00
17495;DHT22;8864;51.970;4.614;2024-02-28T15:36:59;16.50;84.90
17495;DHT22;8864;51.970;4.614;2024-02-28T15:39:26;16.50;85.00
17495;DHT22;8864;51.970;4.614;2024-02-28T15:41:53;16.50;84.80
17495;DHT22;8864;51.970;4.614;2024-02-28T15:44:20;16.50;84.90
17495;DHT22;8864;51.970;4.614;2024-02-28T15:46:46;16.50;84.80